Time;durP1;ratioP1;P1;durP2;ratioP2;P2;SDS_P1;SDS_P2;PMS_P1;PMS_P2;Temp;Humidity;BMP_temperature;BMP_pressure;BME280_temperature;BME280_humidity;BME280_pressure;Samples;Min_cycle;Max_cycle;Signal;HPM_P1;HPM_P2
2023/04/12 00:02:07;;;;;;;19.00;3.72;;;8.30;99.90;;;;;;5014681;28;20060;-49
2023/04/12 00:04:34;;;;;;;19.60;2.05;;;8.30;99.90;;;;;;5014430;28;20018;-46
2023/04/12 00:07:01;;;;;;;13.73;1.92;;;8.40;99.90;;;;;;5014499;28;20050;-45
2023/04/12 00:09:30;;;;;;;21.25;2.65;;;8.40;99.90;;;;;;5017824;28;20021;-46
2023/04/12 00:11:57;;;;;;;22.40;2.43;;;8.50;99.90;;;;;;5024046;28;20076;-47
2023/04/12 00:14:23;;;;;;;27.17;4.18;;;8.50;99.90;;;;;;5013776;28;20114;-46
2023/04/12 00:16:49;;;;;;;22.60;3.08;;;8.50;99.90;;;;;;5020940;28;20045;-46
2023/04/12 00:19:15;;;;;;;24.48;3.50;;;8.60;99.90;;;;;;5013940;28;20034;-47
2023/04/12 00:21:42;;;;;;;23.42;2.92;;;8.60;99.90;;;;;;5014263;28;20022;-46
2023/04/12 00:24:07;;;;;;;21.95;2.95;;;8.60;99.90;;;;;;5014467;28;20030;-45
2023/04/12 00:26:33;;;;;;;13.75;2.20;;;8.60;99.90;;;;;;5013825;28;20026;-46
2023/04/12 00:28:59;;;;;;;18.95;2.45;;;8.70;99.90;;;;;;5014076;28;20088;-48
2023/04/12 00:31:25;;;;;;;24.23;3.15;;;8.70;99.90;;;;;;5014044;28;20101;-47
2023/04/12 00:33:50;;;;;;;22.98;2.83;;;8.70;99.90;;;;;;5014031;28;20028;-47
2023/04/12 00:36:16;;;;;;;22.75;3.15;;;8.70;99.90;;;;;;5014071;28;20022;-47
2023/04/12 00:38:44;;;;;;;20.25;2.58;;;8.70;99.90;;;;;;5013959;28;20029;-46
2023/04/12 00:41:10;;;;;;;22.73;3.38;;;8.70;99.90;;;;;;5013889;28;20382;-47
2023/04/12 00:43:36;;;;;;;21.00;3.10;;;8.70;99.90;;;;;;5013512;28;20041;-47
2023/04/12 00:46:02;;;;;;;17.52;2.88;;;8.70;99.90;;;;;;5013843;28;20021;-46
2023/04/12 00:48:28;;;;;;;30.67;3.58;;;8.70;99.90;;;;;;5013716;28;20041;-46
2023/04/12 00:50:56;;;;;;;21.55;3.13;;;8.70;99.90;;;;;;5013121;28;20037;-47
2023/04/12 00:53:23;;;;;;;21.02;3.03;;;8.70;99.90;;;;;;5013684;28;20026;-47
2023/04/12 00:55:49;;;;;;;25.73;2.53;;;8.70;99.90;;;;;;5013269;28;20125;-50
2023/04/12 00:58:16;;;;;;;30.17;4.18;;;8.70;99.90;;;;;;5013341;28;20397;-48
2023/04/12 01:00:49;;;;;;;26.35;3.90;;;8.70;99.90;;;;;;5013327;28;20029;-47
2023/04/12 01:03:26;;;;;;;24.92;3.60;;;8.70;99.90;;;;;;5012253;28;20057;-46
2023/04/12 01:06:08;;;;;;;29.75;5.25;;;8.60;99.90;;;;;;5013404;28;20068;-47
2023/04/12 01:08:39;;;;;;;35.42;3.60;;;8.60;99.90;;;;;;5013301;28;20037;-47
2023/04/12 01:11:16;;;;;;;34.45;3.92;;;8.50;99.90;;;;;;5013342;28;20100;-46
2023/04/12 01:13:51;;;;;;;27.70;3.92;;;8.50;99.90;;;;;;5011520;28;20125;-46
2023/04/12 01:16:39;;;;;;;28.42;3.92;;;8.50;99.90;;;;;;5013339;28;20030;-48
2023/04/12 01:19:35;;;;;;;38.40;5.45;;;8.50;99.90;;;;;;5012974;28;20107;-46
2023/04/12 01:22:15;;;;;;;34.08;3.97;;;8.50;99.90;;;;;;5010415;28;20038;-46
2023/04/12 01:24:54;;;;;;;30.77;4.18;;;8.50;99.90;;;;;;5012893;28;20469;-45
2023/04/12 01:27:45;;;;;;;26.27;5.50;;;8.60;99.90;;;;;;5012907;28;20068;-47
2023/04/12 01:30:14;;;;;;;33.13;4.10;;;8.60;99.90;;;;;;5013079;28;20508;-47
2023/04/12 01:32:44;;;;;;;25.77;3.60;;;8.60;99.90;;;;;;5013008;28;20041;-51
2023/04/12 01:35:10;;;;;;;;;;;8.60;99.90;;;;;;5013411;28;20033;-46
2023/04/12 01:37:36;;;;;;;35.00;4.95;;;8.60;99.90;;;;;;5013444;28;19905;-47
2023/04/12 01:40:06;;;;;;;25.33;3.97;;;8.50;99.90;;;;;;5012624;28;20034;-49
2023/04/12 01:42:32;;;;;;;;;;;8.50;99.90;;;;;;5012994;28;20058;-49
2023/04/12 01:44:58;;;;;;;24.55;3.90;;;8.50;99.90;;;;;;5012540;28;19957;-47
2023/04/12 01:47:23;;;;;;;27.10;4.50;;;8.50;99.90;;;;;;5011949;28;20096;-46
2023/04/12 01:50:13;;;;;;;29.40;4.18;;;8.50;99.90;;;;;;5012377;28;20022;-47
2023/04/12 01:52:45;;;;;;;21.02;3.13;;;8.50;99.90;;;;;;5012437;28;20028;-47
2023/04/12 01:55:12;;;;;;;25.42;3.78;;;8.50;99.90;;;;;;5012379;28;20026;-48
2023/04/12 01:57:41;;;;;;;22.17;3.53;;;8.40;99.90;;;;;;5012373;28;20033;-48
2023/04/12 02:00:09;;;;;;;24.65;3.47;;;8.40;99.90;;;;;;5012484;28;20030;-47
2023/04/12 02:02:35;;;;;;;21.70;3.22;;;8.40;99.90;;;;;;5011491;28;20030;-48
2023/04/12 02:05:03;;;;;;;24.95;3.63;;;8.40;99.90;;;;;;5012288;28;20022;-48
2023/04/12 02:07:29;;;;;;;30.27;3.80;;;8.30;99.90;;;;;;5012443;28;20038;-46
2023/04/12 02:09:55;;;;;;;24.70;3.78;;;8.30;99.90;;;;;;5012342;28;20071;-48
2023/04/12 02:12:22;;;;;;;31.80;4.25;;;8.30;99.90;;;;;;5012390;28;20567;-46
2023/04/12 02:14:50;;;;;;;25.27;3.28;;;8.30;99.90;;;;;;5012071;28;20412;-48
2023/04/12 02:17:16;;;;;;;28.83;3.90;;;8.30;99.90;;;;;;5012113;28;20029;-47
2023/04/12 02:19:42;;;;;;;27.98;3.28;;;8.20;99.90;;;;;;5011841;28;20033;-49
2023/04/12 02:22:08;;;;;;;24.40;3.28;;;8.20;99.90;;;;;;5011869;28;20030;-46
2023/04/12 02:24:33;;;;;;;29.30;3.92;;;8.10;99.90;;;;;;5011834;28;20062;-49
2023/04/12 02:27:00;;;;;;;27.17;3.40;;;8.10;99.90;;;;;;5011894;28;20034;-46
2023/04/12 02:29:26;;;;;;;25.60;3.40;;;8.00;99.90;;;;;;5011892;28;20026;-46
2023/04/12 02:31:52;;;;;;;21.15;3.70;;;8.00;99.90;;;;;;5011795;28;20041;-49
2023/04/12 02:34:17;;;;;;;23.33;3.42;;;7.90;99.90;;;;;;5027151;28;20079;-45
2023/04/12 02:36:49;;;;;;;28.33;4.30;;;7.80;99.90;;;;;;5011748;28;20076;-48
2023/04/12 02:39:18;;;;;;;23.42;3.15;;;7.70;99.90;;;;;;5009186;28;20045;-47
2023/04/12 02:41:44;;;;;;;22.65;3.05;;;7.60;99.90;;;;;;5026649;28;20026;-46
2023/04/12 02:44:10;;;;;;;18.98;3.25;;;7.60;99.90;;;;;;5011089;28;20092;-50
2023/04/12 02:46:36;;;;;;;23.92;3.15;;;7.50;99.90;;;;;;5011057;28;20504;-48
2023/04/12 02:49:01;;;;;;;19.73;3.08;;;7.50;99.90;;;;;;5011843;28;20496;-49
2023/04/12 02:51:27;;;;;;;23.42;2.92;;;7.60;99.90;;;;;;5011707;28;20050;-46
2023/04/12 02:53:52;;;;;;;28.17;3.33;;;7.60;99.90;;;;;;5011563;28;20374;-49
2023/04/12 02:56:20;;;;;;;22.23;3.20;;;7.60;99.90;;;;;;5010951;28;20041;-50
2023/04/12 02:58:46;;;;;;;21.92;4.00;;;7.60;99.90;;;;;;5004860;28;20033;-47
2023/04/12 03:01:13;;;;;;;24.17;2.92;;;7.60;99.90;;;;;;5010961;28;20048;-47
2023/04/12 03:03:39;;;;;;;26.38;3.75;;;7.60;99.90;;;;;;5011508;28;20017;-46
2023/04/12 03:06:07;;;;;;;23.38;2.90;;;7.50;99.90;;;;;;5010903;28;20366;-45
2023/04/12 03:08:33;;;;;;;23.10;3.33;;;7.50;99.90;;;;;;5011375;28;20049;-48
2023/04/12 03:10:59;;;;;;;23.73;2.92;;;7.40;99.90;;;;;;5010627;28;20026;-50
2023/04/12 03:13:24;;;;;;;19.45;3.58;;;7.30;99.90;;;;;;5011094;28;20077;-47
2023/04/12 03:15:58;;;;;;;24.88;3.65;;;7.20;99.90;;;;;;5010916;28;20116;-47
2023/04/12 03:18:24;;;;;;;26.00;4.10;;;7.20;99.90;;;;;;5011015;28;20061;-45
2023/04/12 03:20:51;;;;;;;20.58;3.30;;;7.10;99.90;;;;;;5011163;28;20053;-46
2023/04/12 03:23:17;;;;;;;21.88;2.60;;;7.00;99.90;;;;;;5010913;28;20022;-47
2023/04/12 03:25:43;;;;;;;22.80;3.28;;;7.00;99.90;;;;;;5010879;28;20026;-48
2023/04/12 03:28:09;;;;;;;19.13;3.17;;;6.90;99.90;;;;;;5010853;28;20030;-46
2023/04/12 03:30:34;;;;;;;24.83;3.80;;;6.80;99.90;;;;;;5010938;28;20029;-46
2023/04/12 03:33:00;;;;;;;25.13;3.42;;;6.80;99.90;;;;;;5010989;28;20022;-46
2023/04/12 03:35:26;;;;;;;19.25;3.08;;;6.70;99.90;;;;;;5010991;28;20030;-46
2023/04/12 03:37:52;;;;;;;20.23;3.10;;;6.70;99.90;;;;;;5010945;28;20389;-46
2023/04/12 03:40:17;;;;;;;22.83;2.85;;;6.60;99.90;;;;;;5010622;28;20110;-47
2023/04/12 03:42:43;;;;;;;20.55;2.80;;;6.60;99.90;;;;;;5009013;28;20030;-46
2023/04/12 03:45:09;;;;;;;21.40;3.30;;;6.50;99.90;;;;;;5010701;28;20026;-47
2023/04/12 03:47:35;;;;;;;19.88;3.60;;;6.50;99.90;;;;;;5010819;28;20073;-45
2023/04/12 03:50:05;;;;;;;27.08;3.70;;;6.40;99.90;;;;;;5010918;28;20029;-46
2023/04/12 03:52:31;;;;;;;27.33;2.88;;;6.40;99.90;;;;;;5010787;28;20544;-48
2023/04/12 03:54:57;;;;;;;18.90;3.15;;;6.30;99.90;;;;;;5010682;28;20034;-47
2023/04/12 03:57:23;;;;;;;18.80;2.92;;;6.20;99.90;;;;;;5010472;28;20041;-46
2023/04/12 03:59:48;;;;;;;18.17;2.58;;;6.20;99.90;;;;;;5010830;28;20113;-46
2023/04/12 04:02:14;;;;;;;18.77;3.15;;;6.10;99.90;;;;;;5010789;28;20084;-47
2023/04/12 04:04:40;;;;;;;20.48;4.35;;;6.00;99.90;;;;;;5010761;28;20072;-46
2023/04/12 04:07:06;;;;;;;18.42;2.80;;;5.90;99.90;;;;;;5010833;28;20038;-46
2023/04/12 04:09:33;;;;;;;23.00;3.10;;;5.90;99.90;;;;;;5010428;28;20049;-46
2023/04/12 04:12:00;;;;;;;24.17;3.42;;;5.80;99.90;;;;;;5010571;28;20033;-46
2023/04/12 04:14:26;;;;;;;24.20;2.97;;;5.80;99.90;;;;;;5010350;28;20028;-46
2023/04/12 04:16:52;;;;;;;26.20;3.40;;;5.70;99.90;;;;;;5010660;28;20113;-46
2023/04/12 04:19:18;;;;;;;19.65;2.97;;;5.70;99.90;;;;;;5010455;28;20485;-46
2023/04/12 04:21:44;;;;;;;22.27;3.78;;;5.70;99.90;;;;;;5010579;28;20026;-46
2023/04/12 04:24:10;;;;;;;22.08;3.03;;;5.60;99.90;;;;;;5010476;28;20026;-46
2023/04/12 04:26:37;;;;;;;13.95;2.72;;;5.60;99.90;;;;;;5011710;28;20075;-46
2023/04/12 04:29:04;;;;;;;21.50;2.78;;;5.50;99.90;;;;;;5014390;28;20042;-48
2023/04/12 04:31:33;;;;;;;23.05;3.25;;;5.50;99.90;;;;;;5014033;28;20034;-50
2023/04/12 04:34:04;;;;;;;14.93;2.63;;;5.40;99.90;;;;;;5014142;28;20428;-47
2023/04/12 04:36:32;;;;;;;21.02;3.13;;;5.50;99.90;;;;;;5013938;28;20025;-49
2023/04/12 04:38:58;;;;;;;16.60;2.85;;;5.50;99.90;;;;;;5014129;28;20105;-49
2023/04/12 04:41:25;;;;;;;20.70;2.53;;;5.50;99.90;;;;;;5013766;28;20109;-47
2023/04/12 04:43:50;;;;;;;17.88;2.65;;;5.50;99.90;;;;;;5013703;28;20504;-52
2023/04/12 04:46:19;;;;;;;18.38;2.67;;;5.50;99.90;;;;;;5013636;28;20032;-45
2023/04/12 04:48:46;;;;;;;12.77;3.13;;;5.60;99.90;;;;;;5013788;28;20050;-46
2023/04/12 04:51:13;;;;;;;17.85;2.78;;;5.40;99.90;;;;;;5013728;28;20477;-46
2023/04/12 04:53:39;;;;;;;17.95;2.53;;;5.40;99.90;;;;;;5013663;28;20033;-46
2023/04/12 04:56:05;;;;;;;16.27;2.60;;;5.40;99.90;;;;;;5013632;28;20087;-49
2023/04/12 04:58:31;;;;;;;20.15;2.95;;;5.30;99.90;;;;;;5013751;28;20034;-47
2023/04/12 05:00:58;;;;;;;20.52;2.05;;;5.30;99.90;;;;;;5013412;28;20022;-47
2023/04/12 05:03:26;;;;;;;20.95;2.58;;;5.30;99.90;;;;;;5013649;28;20056;-46
2023/04/12 05:05:53;;;;;;;19.92;2.38;;;5.30;99.90;;;;;;5013425;28;20018;-46
2023/04/12 05:08:19;;;;;;;11.55;2.10;;;5.20;99.90;;;;;;5013411;28;20096;-45
2023/04/12 05:10:44;;;;;;;18.13;2.10;;;5.20;99.90;;;;;;5013308;28;20437;-46
2023/04/12 05:13:10;;;;;;;18.15;2.92;;;5.20;99.90;;;;;;5013101;28;20088;-46
2023/04/12 05:15:39;;;;;;;15.30;1.90;;;5.10;99.90;;;;;;5013342;28;20234;-47
2023/04/12 05:18:05;;;;;;;19.23;2.47;;;5.10;99.90;;;;;;5013231;28;20519;-46
2023/04/12 05:20:31;;;;;;;14.93;2.08;;;5.10;99.90;;;;;;5011838;28;20034;-49
2023/04/12 05:22:57;;;;;;;19.52;3.28;;;5.00;99.90;;;;;;5012901;28;20342;-47
2023/04/12 05:25:22;;;;;;;10.55;1.98;;;5.00;99.90;;;;;;5013137;28;20034;-47
2023/04/12 05:27:48;;;;;;;9.30;2.13;;;4.90;99.90;;;;;;5012858;28;20464;-47
2023/04/12 05:30:14;;;;;;;18.13;1.77;;;4.90;99.90;;;;;;5013010;28;20420;-46
2023/04/12 05:32:39;;;;;;;16.83;2.05;;;4.80;99.90;;;;;;5012988;28;20026;-46
2023/04/12 05:35:05;;;;;;;17.00;2.28;;;4.80;99.90;;;;;;5012859;28;20032;-46
2023/04/12 05:37:31;;;;;;;15.90;2.60;;;4.90;99.90;;;;;;5012513;28;20366;-46
2023/04/12 05:39:57;;;;;;;12.88;1.90;;;4.90;99.90;;;;;;5012611;28;20033;-47
2023/04/12 05:42:22;;;;;;;20.23;2.22;;;4.90;99.90;;;;;;5012480;28;20022;-46
2023/04/12 05:44:49;;;;;;;17.15;2.65;;;5.00;99.90;;;;;;5005077;28;20393;-46
2023/04/12 05:47:15;;;;;;;22.33;2.67;;;5.00;99.90;;;;;;5012290;28;20068;-47
2023/04/12 05:49:40;;;;;;;16.48;2.92;;;5.10;99.90;;;;;;5012348;28;20018;-44
2023/04/12 05:52:06;;;;;;;16.63;2.55;;;5.20;99.90;;;;;;5012415;28;20080;-46
2023/04/12 05:54:32;;;;;;;16.85;2.45;;;5.20;99.90;;;;;;5012615;28;20022;-45
2023/04/12 05:56:57;;;;;;;18.85;2.45;;;5.30;99.90;;;;;;5012087;28;20042;-44
2023/04/12 05:59:23;;;;;;;14.85;2.10;;;5.50;99.90;;;;;;5012566;28;20366;-49
2023/04/12 06:01:49;;;;;;;16.70;2.78;;;5.70;99.90;;;;;;5012469;28;20385;-47
2023/04/12 06:04:14;;;;;;;17.95;2.30;;;5.90;99.90;;;;;;5012506;28;20022;-49
2023/04/12 06:06:40;;;;;;;19.10;2.40;;;6.20;99.90;;;;;;5012358;28;20029;-48
2023/04/12 06:09:06;;;;;;;16.10;2.15;;;6.40;99.90;;;;;;5012280;28;20050;-47
2023/04/12 06:11:37;;;;;;;14.20;2.05;;;6.60;99.90;;;;;;5012143;28;20075;-50
2023/04/12 06:14:03;;;;;;;15.38;2.65;;;6.80;99.90;;;;;;5011910;28;20030;-48
2023/04/12 06:16:29;;;;;;;12.65;1.75;;;6.90;99.90;;;;;;5011985;28;20371;-47
2023/04/12 06:18:54;;;;;;;14.05;2.75;;;7.00;99.90;;;;;;5012088;28;20063;-47
2023/04/12 06:21:20;;;;;;;14.77;2.20;;;7.10;99.90;;;;;;5012020;28;20028;-48
2023/04/12 06:23:46;;;;;;;14.55;2.65;;;7.20;99.90;;;;;;5012088;28;20105;-49
2023/04/12 06:26:11;;;;;;;13.50;2.20;;;7.40;99.90;;;;;;5011947;28;20025;-47
2023/04/12 06:28:37;;;;;;;11.32;1.88;;;7.60;99.90;;;;;;5011854;28;20048;-47
2023/04/12 06:31:03;;;;;;;9.90;1.52;;;7.70;99.90;;;;;;5011912;28;20381;-50
2023/04/12 06:33:29;;;;;;;10.63;1.70;;;7.80;99.90;;;;;;5011653;28;20026;-46
2023/04/12 06:35:54;;;;;;;20.38;2.80;;;8.00;99.90;;;;;;5011830;28;20336;-50
2023/04/12 06:38:20;;;;;;;13.13;1.55;;;8.20;99.90;;;;;;5011721;28;20030;-52
2023/04/12 06:40:46;;;;;;;10.30;2.20;;;8.50;99.90;;;;;;5011798;28;20030;-46
2023/04/12 06:43:13;;;;;;;11.60;2.35;;;8.80;99.90;;;;;;5011150;28;20026;-49
2023/04/12 06:45:38;;;;;;;8.45;1.40;;;8.90;99.90;;;;;;5011530;28;20030;-46
2023/04/12 06:48:04;;;;;;;14.25;1.90;;;9.00;99.90;;;;;;5011409;28;20087;-47
2023/04/12 06:50:30;;;;;;;13.32;2.00;;;9.10;99.90;;;;;;5010956;28;20014;-46
2023/04/12 06:52:55;;;;;;;11.77;2.03;;;9.00;99.90;;;;;;5011505;28;20113;-51
2023/04/12 06:55:21;;;;;;;15.40;2.45;;;9.00;99.90;;;;;;5011212;28;20397;-46
2023/04/12 06:57:46;;;;;;;13.15;2.00;;;8.90;99.90;;;;;;5011543;28;20037;-46
2023/04/12 07:00:12;;;;;;;15.13;2.40;;;8.90;99.90;;;;;;5011395;28;20092;-48
2023/04/12 07:02:38;;;;;;;9.38;1.75;;;8.90;99.90;;;;;;5011376;28;20611;-46
2023/04/12 07:05:05;;;;;;;13.95;2.15;;;8.80;99.90;;;;;;5011354;28;20157;-46
2023/04/12 07:07:31;;;;;;;15.90;2.38;;;8.70;99.90;;;;;;5011233;28;20093;-46
2023/04/12 07:09:56;;;;;;;18.92;2.25;;;8.70;99.90;;;;;;5010071;28;20025;-46
2023/04/12 07:12:22;;;;;;;10.88;1.70;;;8.50;99.90;;;;;;5011253;28;20380;-47
2023/04/12 07:14:48;;;;;;;12.70;1.88;;;8.50;99.90;;;;;;5010577;28;20018;-46
2023/04/12 07:17:13;;;;;;;11.18;1.77;;;8.50;99.90;;;;;;5011229;28;20025;-48
2023/04/12 07:19:40;;;;;;;11.00;1.88;;;8.40;99.90;;;;;;5011565;28;20432;-46
2023/04/12 07:22:06;;;;;;;11.88;1.70;;;8.40;99.90;;;;;;5011206;28;20033;-47
2023/04/12 07:24:32;;;;;;;15.18;3.08;;;8.40;99.90;;;;;;5011115;28;20036;-47
2023/04/12 07:26:58;;;;;;;15.63;2.38;;;8.50;99.90;;;;;;5010969;28;20033;-47
2023/04/12 07:29:23;;;;;;;14.70;1.90;;;8.40;99.90;;;;;;5011240;28;20030;-47
2023/04/12 07:31:49;;;;;;;15.32;1.98;;;8.40;99.90;;;;;;5010867;28;20026;-47
2023/04/12 07:34:15;;;;;;;7.43;1.52;;;8.30;99.90;;;;;;5011019;28;20117;-47
2023/04/12 07:36:42;;;;;;;7.15;1.08;;;8.20;99.90;;;;;;5011113;28;20025;-47
2023/04/12 07:39:10;;;;;;;6.38;1.00;;;7.80;99.90;;;;;;5011028;28;20048;-46
2023/04/12 07:41:36;;;;;;;5.20;0.70;;;7.40;99.90;;;;;;5010669;28;20556;-46
2023/04/12 07:44:03;;;;;;;3.25;0.68;;;7.00;99.90;;;;;;5010669;28;20026;-46
2023/04/12 07:46:29;;;;;;;4.00;0.70;;;6.70;99.90;;;;;;5010723;28;20109;-46
2023/04/12 07:48:55;;;;;;;5.28;1.10;;;6.70;99.90;;;;;;5010875;28;20113;-47
2023/04/12 07:51:20;;;;;;;5.25;1.33;;;6.70;99.90;;;;;;5010829;28;20018;-46
2023/04/12 07:53:47;;;;;;;5.05;1.20;;;6.90;99.90;;;;;;5010790;28;20030;-46
2023/04/12 07:56:13;;;;;;;4.63;1.00;;;7.60;99.90;;;;;;5010621;28;20053;-47
2023/04/12 07:58:39;;;;;;;7.22;1.55;;;8.30;99.90;;;;;;5010800;28;20018;-47
2023/04/12 08:01:06;;;;;;;4.53;1.20;;;8.40;99.90;;;;;;5010877;28;20041;-48
2023/04/12 08:03:31;;;;;;;8.00;2.03;;;8.30;99.90;;;;;;5014554;28;20034;-47
2023/04/12 08:05:57;;;;;;;9.18;1.25;;;8.20;99.90;;;;;;5014056;28;20018;-46
2023/04/12 08:08:23;;;;;;;6.75;1.00;;;7.90;99.90;;;;;;5012793;28;20120;-47
2023/04/12 08:10:51;;;;;;;6.43;1.25;;;7.80;99.90;;;;;;5014483;28;20026;-48
2023/04/12 08:13:17;;;;;;;7.60;1.17;;;7.80;99.90;;;;;;5013769;28;20057;-47
2023/04/12 08:15:43;;;;;;;7.78;1.40;;;7.80;99.90;;;;;;5013994;28;20017;-46
2023/04/12 08:18:10;;;;;;;7.78;1.90;;;7.80;99.90;;;;;;5014451;28;20026;-49
2023/04/12 08:20:36;;;;;;;12.23;1.75;;;8.00;99.90;;;;;;5014167;28;20022;-46
2023/04/12 08:23:02;;;;;;;7.25;1.05;;;8.70;99.90;;;;;;5014495;28;20032;-46
2023/04/12 08:25:27;;;;;;;5.40;1.00;;;9.90;99.90;;;;;;5014203;28;20051;-47
2023/04/12 08:27:53;;;;;;;4.03;1.13;;;11.60;99.90;;;;;;5014070;28;20480;-46
2023/04/12 08:30:19;;;;;;;4.88;0.70;;;13.50;99.90;;;;;;5013830;28;20026;-47
2023/04/12 08:32:44;;;;;;;6.57;1.10;;;14.80;99.90;;;;;;5014299;28;20512;-50
2023/04/12 08:35:10;;;;;;;4.65;1.10;;;15.60;99.90;;;;;;5013876;28;20022;-46
2023/04/12 08:37:36;;;;;;;5.63;1.08;;;16.40;97.80;;;;;;5013799;28;20499;-50
2023/04/12 08:40:05;;;;;;;7.45;1.13;;;17.20;96.80;;;;;;5014058;28;20026;-46
2023/04/12 08:42:33;;;;;;;4.63;0.90;;;17.50;91.80;;;;;;5013675;28;20022;-47
2023/04/12 08:45:02;;;;;;;3.55;0.80;;;17.40;89.60;;;;;;5013844;28;20030;-45
2023/04/12 08:47:30;;;;;;;6.00;0.90;;;17.10;86.90;;;;;;5013383;28;20038;-45
2023/04/12 08:49:56;;;;;;;7.07;1.10;;;16.80;87.10;;;;;;5012433;28;20018;-45
2023/04/12 08:52:21;;;;;;;8.30;1.30;;;16.80;89.70;;;;;;5013227;28;20448;-45
2023/04/12 08:54:47;;;;;;;6.18;1.13;;;17.20;89.40;;;;;;5013473;28;20072;-49
2023/04/12 08:57:16;;;;;;;4.97;0.98;;;16.70;86.00;;;;;;5013363;28;20050;-47
2023/04/12 08:59:44;;;;;;;8.30;1.05;;;15.40;90.00;;;;;;5012148;28;20054;-48
2023/04/12 09:02:12;;;;;;;6.18;0.98;;;14.80;91.40;;;;;;5008652;28;20038;-44
2023/04/12 09:04:51;;;;;;;6.93;1.25;;;14.10;89.80;;;;;;5013560;28;20026;-44
2023/04/12 09:07:27;;;;;;;4.00;0.98;;;13.80;93.60;;;;;;5013423;28;20041;-53
2023/04/12 09:09:53;;;;;;;6.43;1.08;;;14.90;92.00;;;;;;5013459;28;20030;-47
2023/04/12 09:12:21;;;;;;;3.72;0.90;;;16.50;90.30;;;;;;5012739;28;20029;-46
2023/04/12 09:14:47;;;;;;;6.65;1.10;;;16.20;82.30;;;;;;5013348;28;20018;-47
2023/04/12 09:17:24;;;;;;;6.10;0.88;;;15.90;82.70;;;;;;5011678;28;20164;-45
2023/04/12 09:19:50;;;;;;;5.25;1.13;;;15.00;82.50;;;;;;5011845;28;20104;-44
2023/04/12 09:22:16;;;;;;;6.45;1.20;;;15.00;83.70;;;;;;5010684;28;20121;-44
2023/04/12 09:24:46;;;;;;;4.50;0.82;;;15.80;82.40;;;;;;5006638;28;20045;-44
2023/04/12 09:27:12;;;;;;;7.53;1.10;;;15.90;79.90;;;;;;5007186;28;20409;-44
2023/04/12 09:29:38;;;;;;;5.35;1.20;;;16.30;80.50;;;;;;5012485;28;20150;-45
2023/04/12 09:32:06;;;;;;;7.80;1.67;;;16.20;78.60;;;;;;5028239;28;20029;-45
2023/04/12 09:34:34;;;;;;;8.05;1.10;;;15.50;79.20;;;;;;5012923;28;20060;-44
2023/04/12 09:37:12;;;;;;;10.15;1.50;;;15.40;82.90;;;;;;5012790;28;20089;-44
2023/04/12 09:39:38;;;;;;;8.18;0.93;;;15.30;83.30;;;;;;5013027;28;20469;-44
2023/04/12 09:42:08;;;;;;;7.55;1.33;;;15.20;83.70;;;;;;5012859;28;20305;-44
2023/04/12 09:44:34;;;;;;;6.47;1.60;;;15.50;83.50;;;;;;5011979;28;20563;-44
2023/04/12 09:47:04;;;;;;;9.75;1.58;;;15.60;79.40;;;;;;5012252;28;20026;-46
2023/04/12 09:49:37;;;;;;;5.53;1.35;;;14.50;81.20;;;;;;5012624;28;20116;-44
2023/04/12 09:52:05;;;;;;;10.10;1.77;;;13.00;84.50;;;;;;5012693;28;20034;-43
2023/04/12 09:54:53;;;;;;;7.53;1.40;;;12.40;93.10;;;;;;5012727;28;20033;-44
2023/04/12 09:57:22;;;;;;;15.43;1.77;;;13.50;93.30;;;;;;5012170;28;20436;-44
2023/04/12 09:59:51;;;;;;;7.53;1.27;;;15.10;90.10;;;;;;5012008;28;20026;-44
2023/04/12 10:02:17;;;;;;;;;;;16.20;86.00;;;;;;5012776;28;20029;-45
2023/04/12 10:04:44;;;;;;;5.43;1.10;;;16.70;79.80;;;;;;5012226;28;20017;-50
2023/04/12 10:07:11;;;;;;;6.75;1.08;;;16.30;78.30;;;;;;5011823;28;20026;-45
2023/04/12 10:09:38;;;;;;;5.82;1.20;;;16.50;76.40;;;;;;5011800;28;20065;-47
2023/04/12 10:12:05;;;;;;;8.40;1.30;;;16.90;72.40;;;;;;5012039;28;20493;-44
2023/04/12 10:14:31;;;;;;;9.23;1.77;;;16.30;71.90;;;;;;5011715;28;20033;-44
2023/04/12 10:16:59;;;;;;;9.35;1.35;;;15.40;76.60;;;;;;5012185;28;20491;-44
2023/04/12 10:19:26;;;;;;;7.75;1.60;;;13.90;79.10;;;;;;5012339;28;20030;-43
2023/04/12 10:21:52;;;;;;;7.55;1.38;;;12.60;87.10;;;;;;5011853;28;20037;-43
2023/04/12 10:24:21;;;;;;;10.40;1.33;;;11.20;95.50;;;;;;5010738;28;20029;-43
2023/04/12 10:26:49;;;;;;;;;;;11.10;99.90;;;;;;5012226;28;20160;-44
2023/04/12 10:29:25;;;;;;;7.00;1.13;;;12.80;99.90;;;;;;5011764;28;19917;-44
2023/04/12 10:31:51;;;;;;;5.10;1.00;;;14.50;97.50;;;;;;5011836;28;20044;-44
2023/04/12 10:34:22;;;;;;;6.15;1.13;;;16.20;86.40;;;;;;5011361;28;20397;-43
2023/04/12 10:36:58;;;;;;;6.18;1.08;;;16.90;85.10;;;;;;5010571;28;20022;-43
2023/04/12 10:39:41;;;;;;;11.52;1.33;;;17.50;74.80;;;;;;5011848;28;20550;-44
2023/04/12 10:42:23;;;;;;;10.57;1.42;;;17.90;73.70;;;;;;5011371;28;20073;-44
2023/04/12 10:44:51;;;;;;;7.90;1.58;;;17.80;70.00;;;;;;5007639;28;20026;-45
2023/04/12 10:47:49;;;;;;;9.48;1.20;;;17.40;70.30;;;;;;5009759;28;20038;-43
2023/04/12 10:50:24;;;;;;;4.75;0.98;;;17.10;70.50;;;;;;5011456;28;20103;-43
2023/04/12 10:53:11;;;;;;;4.85;1.10;;;16.60;68.50;;;;;;4999746;28;20026;-46
2023/04/12 10:55:42;;;;;;;7.10;1.40;;;16.70;67.80;;;;;;5011022;28;20508;-41
2023/04/12 10:58:31;;;;;;;8.23;1.52;;;17.70;68.30;;;;;;5011365;28;20037;-44
2023/04/12 11:00:59;;;;;;;6.18;1.20;;;17.80;65.50;;;;;;5008419;28;20096;-44
2023/04/12 11:03:26;;;;;;;7.20;1.38;;;17.30;67.10;;;;;;5011255;28;20504;-46
2023/04/12 11:06:03;;;;;;;6.78;1.20;;;17.20;66.30;;;;;;5010499;28;20030;-52
2023/04/12 11:08:30;;;;;;;8.45;1.52;;;17.50;68.30;;;;;;5009592;28;20385;-41
2023/04/12 11:11:03;;;;;;;10.10;1.60;;;18.10;69.20;;;;;;5007400;28;20029;-42
2023/04/12 11:13:37;;;;;;;7.93;1.58;;;19.50;66.80;;;;;;5007516;28;20095;-45
2023/04/12 11:16:05;;;;;;;10.85;2.30;;;19.80;60.70;;;;;;5004742;28;20469;-46
2023/04/12 11:18:34;;;;;;;8.32;1.90;;;18.40;63.80;;;;;;5004231;28;20049;-41
2023/04/12 11:21:01;;;;;;;12.82;2.58;;;17.40;66.60;;;;;;5010296;28;20152;-46
2023/04/12 11:23:28;;;;;;;13.90;2.13;;;17.00;67.20;;;;;;5010695;28;20129;-49
2023/04/12 11:25:53;;;;;;;10.77;1.67;;;16.90;68.40;;;;;;5010849;28;20469;-45
2023/04/12 11:28:20;;;;;;;10.05;1.70;;;16.70;68.00;;;;;;5010689;28;20164;-51
2023/04/12 11:30:52;;;;;;;7.57;1.42;;;15.90;70.90;;;;;;5010922;28;20500;-47
2023/04/12 11:33:38;;;;;;;10.90;2.30;;;16.10;75.40;;;;;;5010960;28;20037;-50
2023/04/12 11:36:09;;;;;;;15.05;2.58;;;15.60;69.10;;;;;;5010753;28;20044;-43
2023/04/12 11:38:36;;;;;;;11.20;1.85;;;15.60;71.50;;;;;;5010702;28;20018;-44
2023/04/12 11:41:03;;;;;;;10.85;1.92;;;16.70;71.40;;;;;;5010618;28;20025;-48
2023/04/12 11:43:29;;;;;;;13.00;2.47;;;17.10;70.50;;;;;;5010425;28;20026;-45
2023/04/12 11:45:57;;;;;;;13.57;2.53;;;17.30;70.70;;;;;;5010211;28;20058;-46
2023/04/12 11:48:24;;;;;;;15.52;2.63;;;16.00;72.30;;;;;;5010880;28;20048;-45
2023/04/12 11:50:50;;;;;;;14.23;2.80;;;14.30;80.40;;;;;;5006744;28;20469;-39
2023/04/12 11:53:16;;;;;;;16.35;2.15;;;13.30;91.40;;;;;;5010610;28;20061;-39
2023/04/12 11:55:48;;;;;;;13.80;2.88;;;13.30;92.10;;;;;;5010396;28;20018;-39
2023/04/12 11:58:16;;;;;;;12.20;2.22;;;14.40;90.80;;;;;;5010775;28;20127;-39
2023/04/12 12:00:44;;;;;;;17.35;2.58;;;15.80;85.50;;;;;;5010630;28;20029;-40
2023/04/12 12:03:11;;;;;;;10.10;2.25;;;16.40;79.10;;;;;;5010422;28;20564;-46
2023/04/12 12:05:40;;;;;;;12.05;2.38;;;16.70;79.50;;;;;;5010313;28;20040;-47
2023/04/12 12:08:09;;;;;;;;;;;16.60;74.00;;;;;;5010901;28;20034;-49
2023/04/12 12:10:36;;;;;;;21.25;2.88;;;15.80;75.90;;;;;;5010478;28;19916;-47
2023/04/12 12:13:02;;;;;;;15.65;2.58;;;14.70;77.60;;;;;;5010214;28;20477;-48
2023/04/12 12:15:31;;;;;;;16.42;2.92;;;14.10;85.70;;;;;;5010541;28;20036;-50
2023/04/12 12:17:56;;;;;;;17.95;3.00;;;14.70;80.30;;;;;;5010279;28;20014;-51
2023/04/12 12:20:23;;;;;;;16.63;2.60;;;15.50;79.60;;;;;;5010252;28;20026;-48
2023/04/12 12:22:49;;;;;;;12.98;2.25;;;16.30;77.70;;;;;;5009923;28;20053;-51
2023/04/12 12:25:17;;;;;;;17.25;3.60;;;16.00;73.50;;;;;;5010102;28;20037;-50
2023/04/12 12:27:47;;;;;;;20.75;3.08;;;15.30;76.10;;;;;;5010251;28;20057;-52
2023/04/12 12:30:15;;;;;;;15.35;2.72;;;14.60;77.20;;;;;;5010458;28;20068;-50
2023/04/12 12:32:42;;;;;;;16.30;3.17;;;13.90;77.10;;;;;;5010600;28;20505;-52
2023/04/12 12:35:14;;;;;;;13.82;3.90;;;13.30;78.10;;;;;;5010124;28;20133;-48
2023/04/12 12:37:57;;;;;;;22.00;3.00;;;12.70;79.20;;;;;;5010209;28;20026;-47
2023/04/12 12:40:31;;;;;;;16.02;2.25;;;11.80;85.70;;;;;;5008831;28;20026;-49
2023/04/12 12:42:57;;;;;;;10.27;1.42;;;11.10;91.90;;;;;;5009996;28;20026;-48
2023/04/12 12:45:25;;;;;;;9.98;1.40;;;9.40;97.90;;;;;;5010073;28;20026;-51
2023/04/12 12:47:52;;;;;;;12.20;1.88;;;9.00;99.90;;;;;;5011459;28;20109;-47
2023/04/12 12:50:21;;;;;;;21.73;3.78;;;9.50;99.90;;;;;;5013661;28;20029;-54
2023/04/12 12:52:47;;;;;;;17.10;2.88;;;11.00;99.90;;;;;;5013549;28;20026;-51